.
WxDataArchive / Data Records for 2012-04-10
2012-04-09 April 2012 2012-04-11

Data Records for Tuesday, 10 April 2012

Time	Temp	Chill	HIndex	Humid	Dewpt	 Wind 	HiWind	WindDir	Rain 	Barom 
-----	----	-----	------	-----	-----	------	------	-------	-----	----- 
00:00	46.0	46.0	46.0	37	21.2	0	2	315	0.00	29.911 
00:05	45.8	45.8	45.8	37	21.0	0	2	315	0.00	29.911 
00:10	45.7	45.7	45.7	37	20.9	0	2	315	0.00	29.911 
00:15	45.4	45.4	45.4	37	20.7	0	2	315	0.00	29.918 
00:20	45.2	45.2	45.2	38	21.1	0	1	315	0.00	29.918 
00:25	45.1	45.1	45.1	38	21.0	0	1	315	0.00	29.918 
00:30	44.8	44.8	44.8	39	21.4	0	1	315	0.00	29.923 
00:35	44.6	44.6	44.6	40	21.8	0	2	315	0.00	29.923 
00:40	44.5	44.5	44.5	40	21.7	0	2	315	0.00	29.923 
00:45	44.3	44.3	44.3	41	22.1	0	2	315	0.00	29.927 
00:50	44.2	44.2	44.2	41	22.0	0	1	315	0.00	29.927 
00:55	44.1	44.1	44.1	41	21.9	0	1	315	0.00	29.927 
01:00	43.9	43.9	43.9	42	22.3	0	2	315	0.00	29.925 
01:05	43.6	43.6	43.6	42	22.0	0	1	315	0.00	29.925 
01:10	43.5	43.5	43.5	43	22.5	0	1	315	0.00	29.925 
01:15	43.2	43.2	43.2	44	22.8	0	1	315	0.00	29.927 
01:20	43.1	43.1	43.1	44	22.7	0	2	315	0.00	29.927 
01:25	42.9	42.9	42.9	44	22.5	0	2	315	0.00	29.927 
01:30	42.9	42.9	42.9	44	22.5	0	3	315	0.00	29.929 
01:35	42.8	42.8	42.8	45	22.9	0	2	315	0.00	29.929 
01:40	42.6	42.6	42.6	46	23.3	0	2	315	0.00	29.929 
01:45	42.6	42.6	42.6	46	23.3	0	2	315	0.00	29.934 
01:50	42.5	42.5	42.5	47	23.7	1	3	315	0.00	29.934 
01:55	42.3	42.3	42.3	47	23.5	1	2	315	0.00	29.934 
02:00	42.3	42.3	42.3	47	23.5	0	1	315	0.00	29.940 
02:05	42.2	42.2	42.2	48	23.9	1	4	315	0.00	29.940 
02:10	42.1	42.1	42.1	48	23.8	0	1	338	0.00	29.940 
02:15	41.9	41.9	41.9	49	24.1	0	2	338	0.00	29.939 
02:20	41.6	41.6	41.6	50	24.4	1	4	338	0.00	29.939 
02:25	41.6	41.6	41.6	50	24.4	0	3	338	0.00	29.939 
02:30	41.5	41.5	41.5	51	24.7	0	2	338	0.00	29.940 
02:35	41.2	41.2	41.2	52	24.9	0	1	338	0.00	29.940 
02:40	41.2	41.2	41.2	52	24.9	0	2	338	0.00	29.940 
02:45	41.1	41.1	41.1	53	25.3	1	4	338	0.00	29.942 
02:50	40.9	40.9	40.9	53	25.1	0	4	338	0.00	29.942 
02:55	40.8	40.8	40.8	54	25.5	0	2	270	0.00	29.942 
03:00	40.6	40.6	40.6	54	25.3	0	2	270	0.00	29.941 
03:05	40.5	40.5	40.5	55	25.6	0	3	270	0.00	29.941 
03:10	40.3	40.3	40.3	55	25.4	0	2	270	0.00	29.941 
03:15	40.2	40.2	40.2	55	25.3	0	2	270	0.00	29.940 
03:20	40.1	40.1	40.1	55	25.2	0	2	270	0.00	29.940 
03:25	39.8	39.8	39.8	56	25.4	0	2	270	0.00	29.940 
03:30	39.6	39.6	39.6	56	25.2	0	1	270	0.00	29.939 
03:35	39.5	39.5	39.5	56	25.1	0	2	270	0.00	29.939 
03:40	39.5	39.5	39.5	56	25.1	0	2	270	0.00	29.939 
03:45	39.2	39.2	39.2	56	24.8	0	2	270	0.00	29.940 
03:50	39.2	39.2	39.2	56	24.8	0	2	270	0.00	29.940 
03:55	38.9	38.9	38.9	56	24.6	0	1	270	0.00	29.940 
04:00	38.8	38.8	38.8	55	24.0	0	2	270	0.00	29.939 
04:05	38.8	38.8	38.8	55	24.0	0	2	270	0.00	29.939 
04:10	38.6	38.6	38.6	55	23.8	0	1	270	0.00	29.939 
04:15	38.3	38.3	38.3	55	23.6	0	1	270	0.00	29.940 
04:20	38.3	38.3	38.3	55	23.6	0	2	270	0.00	29.940 
04:25	38.2	38.2	38.2	55	23.5	1	3	270	0.00	29.940 
04:30	38.2	38.2	38.2	55	23.5	1	3	270	0.00	29.941 
04:35	38.0	38.0	38.0	55	23.3	1	3	270	0.00	29.941 
04:40	37.9	37.9	37.9	56	23.6	0	1	270	0.00	29.941 
04:45	37.8	37.8	37.8	56	23.5	1	3	270	0.00	29.940 
04:50	37.8	37.8	37.8	56	23.5	1	2	270	0.00	29.940 
04:55	37.6	37.6	37.6	56	23.3	0	1	270	0.00	29.940 
05:00	37.5	37.5	37.5	56	23.2	0	2	270	0.00	29.940 
05:05	37.3	37.3	37.3	56	23.1	1	3	270	0.00	29.940 
05:10	37.2	37.2	37.2	57	23.4	1	4	270	0.00	29.940 
05:15	37.0	37.0	37.0	57	23.2	1	3	270	0.00	29.944 
05:20	37.0	37.0	37.0	58	23.6	1	3	270	0.00	29.944 
05:25	36.9	36.9	36.9	58	23.5	0	2	270	0.00	29.944 
05:30	36.8	36.8	36.8	58	23.4	0	1	270	0.00	29.946 
05:35	36.6	36.6	36.6	58	23.2	0	1	270	0.00	29.946 
05:40	36.5	36.5	36.5	59	23.6	1	3	270	0.00	29.946 
05:45	36.5	36.5	36.5	59	23.6	1	2	270	0.00	29.943 
05:50	36.3	36.3	36.3	59	23.4	1	2	270	0.00	29.943 
05:55	36.3	36.3	36.3	60	23.8	1	3	270	0.00	29.943 
06:00	36.3	36.3	36.3	60	23.8	1	4	270	0.00	29.947 
06:05	36.2	36.2	36.2	60	23.7	1	3	292	0.00	29.947 
06:10	36.2	36.2	36.2	59	23.3	1	4	292	0.00	29.947 
06:15	36.2	36.2	36.2	58	22.9	1	3	292	0.00	29.947 
06:20	36.2	36.2	36.2	58	22.9	1	4	292	0.00	29.947 
06:25	36.0	36.0	36.0	58	22.7	1	4	292	0.00	29.947 
06:30	36.0	36.0	36.0	58	22.7	1	4	292	0.00	29.950 
06:35	35.9	35.9	35.9	57	22.2	1	3	292	0.00	29.950 
06:40	35.9	35.9	35.9	57	22.2	1	5	270	0.00	29.950 
06:45	35.9	35.9	35.9	56	21.8	1	4	315	0.00	29.951 
06:50	35.9	35.9	35.9	56	21.8	1	4	315	0.00	29.951 
06:55	36.0	36.0	36.0	56	21.8	1	5	270	0.00	29.951 
07:00	36.0	36.0	36.0	56	21.8	2	7	270	0.00	29.952 
07:05	36.0	36.0	36.0	56	21.8	1	4	292	0.00	29.952 
07:10	36.0	36.0	36.0	57	22.3	1	5	315	0.00	29.952 
07:15	36.0	36.0	36.0	57	22.3	2	5	248	0.00	29.956 
07:20	35.9	35.9	35.9	58	22.6	1	3	315	0.00	29.956 
07:25	35.9	35.9	35.9	58	22.6	1	4	315	0.00	29.956 
07:30	35.9	35.9	35.9	58	22.6	1	4	338	0.00	29.956 
07:35	35.9	35.9	35.9	59	23.0	1	4	270	0.00	29.956 
07:40	35.9	35.9	35.9	59	23.0	1	4	270	0.00	29.956 
07:45	35.9	35.9	35.9	59	23.0	1	5	270	0.00	29.959 
07:50	36.0	36.0	36.0	59	23.1	1	5	292	0.00	29.959 
07:55	36.2	36.2	36.2	59	23.3	2	5	292	0.00	29.959 
08:00	36.3	36.3	36.3	59	23.4	1	4	270	0.00	29.963 
08:05	36.5	36.5	36.5	59	23.6	1	4	270	0.00	29.963 
08:10	36.8	36.8	36.8	58	23.4	2	4	270	0.00	29.963 
08:15	37.0	37.0	37.0	58	23.6	1	4	270	0.00	29.967 
08:20	37.2	37.2	37.2	57	23.4	2	6	270	0.00	29.967 
08:25	37.2	37.2	37.2	57	23.4	1	4	270	0.00	29.967 
08:30	37.3	37.3	37.3	57	23.5	1	3	338	0.00	29.968 
08:35	37.6	37.6	37.6	56	23.3	2	6	270	0.00	29.968 
08:40	38.0	38.0	38.0	55	23.3	2	5	270	0.00	29.968 
08:45	38.3	38.3	38.3	55	23.6	2	5	248	0.00	29.966 
08:50	38.6	38.6	38.6	54	23.4	3	6	270	0.00	29.966 
08:55	38.9	38.9	38.9	54	23.7	3	6	270	0.00	29.966 
09:00	39.2	36.4	39.2	53	23.5	4	9	270	0.00	29.965 
09:05	39.5	39.5	39.5	53	23.8	3	7	270	0.00	29.965 
09:10	39.6	39.6	39.6	52	23.4	2	6	338	0.00	29.965 
09:15	39.3	39.3	39.3	51	22.7	3	11	338	0.00	29.967 
09:20	39.2	39.2	39.2	53	23.5	2	6	270	0.00	29.967 
09:25	39.3	39.3	39.3	52	23.2	3	9	248	0.00	29.967 
09:30	39.6	39.6	39.6	52	23.4	2	6	270	0.00	29.968 
09:35	39.5	39.5	39.5	51	22.9	3	5	248	0.00	29.968 
09:40	39.3	39.3	39.3	51	22.7	2	5	248	0.00	29.968 
09:45	39.2	39.2	39.2	52	23.1	2	7	270	0.00	29.969 
09:50	39.2	39.2	39.2	52	23.1	2	5	270	0.00	29.969 
09:55	39.2	39.2	39.2	51	22.6	3	6	292	0.00	29.969 
10:00	39.2	39.2	39.2	51	22.6	2	5	315	0.00	29.970 
10:05	39.2	39.2	39.2	51	22.6	2	5	270	0.00	29.970 
10:10	39.2	39.2	39.2	49	21.7	3	7	338	0.00	29.970 
10:15	39.1	36.3	39.1	49	21.6	4	7	270	0.00	29.982 
10:20	39.1	39.1	39.1	49	21.6	2	4	270	0.00	29.982 
10:25	39.2	39.2	39.2	49	21.7	2	6	270	0.00	29.982 
10:30	39.2	39.2	39.2	48	21.2	2	7	315	0.00	29.985 
10:35	39.2	39.2	39.2	49	21.7	2	6	315	0.00	29.985 
10:40	39.2	39.2	39.2	49	21.7	2	6	315	0.00	29.985 
10:45	39.3	39.3	39.3	49	21.8	1	5	292	0.00	29.988 
10:50	39.3	39.3	39.3	49	21.8	3	7	270	0.00	29.988 
10:55	39.3	39.3	39.3	47	20.8	2	6	338	0.00	29.988 
11:00	39.3	39.3	39.3	47	20.8	1	4	315	0.00	29.989 
11:05	39.5	39.5	39.5	46	20.5	2	5	315	0.00	29.989 
11:10	39.5	39.5	39.5	46	20.5	2	6	270	0.00	29.989 
11:15	39.5	39.5	39.5	46	20.5	1	4	315	0.00	29.990 
11:20	39.6	39.6	39.6	45	20.0	3	5	270	0.00	29.990 
11:25	39.6	39.6	39.6	45	20.0	2	6	270	0.00	29.990 
11:30	39.5	39.5	39.5	45	19.9	3	7	315	0.00	29.991 
11:35	39.5	39.5	39.5	45	19.9	2	6	338	0.00	29.991 
11:40	39.3	39.3	39.3	46	20.3	3	5	270	0.00	29.991 
11:45	39.2	39.2	39.2	46	20.2	3	7	270	0.00	29.994 
11:50	39.2	39.2	39.2	46	20.2	3	7	270	0.00	29.994 
11:55	39.2	39.2	39.2	47	20.7	2	6	338	0.00	29.994 
12:00	39.3	39.3	39.3	46	20.3	3	6	248	0.00	29.998 
12:05	39.3	39.3	39.3	45	19.8	3	7	270	0.00	29.998 
12:10	39.2	39.2	39.2	46	20.2	3	6	248	0.00	29.998 
12:15	39.3	39.3	39.3	47	20.8	2	6	248	0.00	30.000 
12:20	39.2	39.2	39.2	46	20.2	3	6	270	0.00	30.000 
12:25	39.3	39.3	39.3	46	20.3	2	5	270	0.00	30.000 
12:30	39.3	39.3	39.3	46	20.3	2	6	270	0.00	30.001 
12:35	39.5	39.5	39.5	45	19.9	2	5	248	0.00	30.001 
12:40	39.5	39.5	39.5	46	20.5	2	6	270	0.00	30.001 
12:45	39.5	39.5	39.5	45	19.9	2	7	315	0.00	29.998 
12:50	39.5	39.5	39.5	46	20.5	2	7	270	0.00	29.998 
12:55	39.5	39.5	39.5	46	20.5	3	6	292	0.00	29.998 
13:00	39.3	39.3	39.3	46	20.3	3	12	338	0.00	30.006 
13:05	39.2	39.2	39.2	46	20.2	3	10	315	0.00	30.006 
13:10	39.3	39.3	39.3	48	21.3	2	9	270	0.00	30.006 
13:15	39.3	39.3	39.3	47	20.8	2	6	292	0.00	30.009 
13:20	39.6	39.6	39.6	47	21.0	2	9	315	0.00	30.009 
13:25	39.8	39.8	39.8	47	21.2	2	5	315	0.00	30.009 
13:30	39.8	39.8	39.8	47	21.2	2	6	270	0.00	30.007 
13:35	40.1	40.1	40.1	45	20.5	3	7	292	0.00	30.007 
13:40	40.2	40.2	40.2	45	20.6	3	6	270	0.00	30.007 
13:45	40.2	40.2	40.2	44	20.0	3	8	315	0.00	30.005 
13:50	40.2	40.2	40.2	45	20.6	2	6	270	0.00	30.005 
13:55	40.3	40.3	40.3	44	20.1	2	6	292	0.00	30.005 
14:00	40.2	40.2	40.2	45	20.6	2	6	248	0.00	30.005 
14:05	40.2	40.2	40.2	44	20.0	3	6	315	0.00	30.005 
14:10	40.1	40.1	40.1	46	21.0	2	6	338	0.00	30.005 
14:15	39.9	39.9	39.9	46	20.8	3	7	338	0.00	30.009 
14:20	39.8	39.8	39.8	46	20.7	2	7	315	0.00	30.009 
14:25	39.8	39.8	39.8	48	21.7	3	5	338	0.00	30.009 
14:30	40.1	40.1	40.1	49	22.5	2	6	315	0.00	30.011 
14:35	40.3	40.3	40.3	48	22.2	3	7	270	0.00	30.011 
14:40	40.2	40.2	40.2	49	22.6	3	7	270	0.00	30.011 
14:45	39.8	39.8	39.8	48	21.7	2	5	270	0.00	30.011 
14:50	39.5	39.5	39.5	50	22.4	3	5	292	0.00	30.011 
14:55	39.1	39.1	39.1	51	22.5	3	6	248	0.00	30.011 
15:00	38.9	38.9	38.9	52	22.8	2	5	270	0.00	30.016 
15:05	38.8	38.8	38.8	52	22.7	3	6	270	0.00	30.016 
15:10	38.8	38.8	38.8	54	23.6	2	7	248	0.00	30.016 
15:15	38.8	38.8	38.8	53	23.2	3	7	248	0.00	30.020 
15:20	38.9	38.9	38.9	52	22.8	2	8	248	0.00	30.020 
15:25	39.1	39.1	39.1	54	23.9	1	5	292	0.00	30.020 
15:30	38.9	38.9	38.9	53	23.2	3	7	270	0.00	30.020 
15:35	39.1	39.1	39.1	52	23.0	3	9	270	0.00	30.020 
15:40	39.2	39.2	39.2	51	22.6	2	5	270	0.00	30.020 
15:45	39.3	39.3	39.3	50	22.2	3	7	338	0.00	30.021 
15:50	39.6	39.6	39.6	50	22.5	3	6	270	0.00	30.021 
15:55	39.3	36.5	39.3	50	22.2	4	7	292	0.00	30.021 
16:00	39.1	36.3	39.1	50	22.0	4	12	292	0.00	30.025 
16:05	38.9	38.9	38.9	50	21.9	3	9	315	0.00	30.025 
16:10	38.9	38.9	38.9	51	22.3	2	6	270	0.00	30.025 
16:15	38.8	38.8	38.8	51	22.2	3	7	270	0.00	30.027 
16:20	38.8	38.8	38.8	52	22.7	2	4	248	0.00	30.027 
16:25	38.8	38.8	38.8	52	22.7	2	7	270	0.00	30.027 
16:30	38.5	38.5	38.5	53	22.9	3	7	248	0.00	30.030 
16:35	38.3	35.4	38.3	52	22.2	4	7	270	0.00	30.030 
16:40	38.3	38.3	38.3	52	22.2	3	9	270	0.00	30.030 
16:45	38.6	38.6	38.6	52	22.5	1	4	292	0.00	30.029 
16:50	38.9	38.9	38.9	51	22.3	3	10	292	0.00	30.029 
16:55	39.2	39.2	39.2	51	22.6	3	9	315	0.00	30.029 
17:00	39.2	39.2	39.2	50	22.1	3	12	292	0.00	30.031 
17:05	38.9	36.0	38.9	50	21.9	4	9	270	0.00	30.031 
17:10	38.8	35.9	38.8	50	21.8	4	7	270	0.00	30.031 
17:15	38.9	38.9	38.9	52	22.8	3	9	270	0.00	30.043 
17:20	38.8	38.8	38.8	51	22.2	3	9	270	0.00	30.043 
17:25	38.8	35.9	38.8	51	22.2	4	9	292	0.00	30.043 
17:30	38.8	38.8	38.8	53	23.2	3	9	248	0.00	30.046 
17:35	38.8	35.9	38.8	52	22.7	4	8	292	0.00	30.046 
17:40	38.5	35.6	38.5	53	22.9	4	7	270	0.00	30.046 
17:45	38.3	38.3	38.3	51	21.8	3	6	270	0.00	30.047 
17:50	38.3	35.4	38.3	53	22.7	4	7	270	0.00	30.047 
17:55	38.3	38.3	38.3	53	22.7	3	9	270	0.00	30.047 
18:00	38.3	38.3	38.3	53	22.7	2	5	315	0.00	30.050 
18:05	38.2	38.2	38.2	53	22.6	2	8	315	0.00	30.050 
18:10	38.2	38.2	38.2	53	22.6	2	5	338	0.00	30.050 
18:15	38.2	38.2	38.2	54	23.0	2	6	338	0.00	30.060 
18:20	38.2	38.2	38.2	53	22.6	2	5	270	0.00	30.060 
18:25	38.2	38.2	38.2	51	21.7	2	6	292	0.00	30.060 
18:30	38.2	38.2	38.2	50	21.2	3	7	292	0.00	30.061 
18:35	38.3	38.3	38.3	50	21.3	1	5	270	0.00	30.061 
18:40	38.3	38.3	38.3	48	20.4	3	5	315	0.00	30.061 
18:45	38.2	38.2	38.2	48	20.3	3	7	292	0.00	30.064 
18:50	38.2	38.2	38.2	49	20.7	2	5	338	0.00	30.064 
18:55	38.0	38.0	38.0	47	19.6	3	7	270	0.00	30.064 
19:00	38.0	38.0	38.0	47	19.6	2	5	315	0.00	30.070 
19:05	38.0	38.0	38.0	47	19.6	2	5	315	0.00	30.070 
19:10	38.0	38.0	38.0	47	19.6	1	4	270	0.00	30.070 
19:15	38.0	38.0	38.0	46	19.1	3	7	248	0.00	30.072 
19:20	37.9	37.9	37.9	47	19.5	3	6	270	0.00	30.072 
19:25	37.9	37.9	37.9	49	20.5	1	5	248	0.00	30.072 
19:30	37.8	37.8	37.8	50	20.8	1	4	292	0.00	30.072 
19:35	37.6	37.6	37.6	49	20.2	2	7	270	0.00	30.072 
19:40	37.5	34.4	37.5	48	19.6	4	9	292	0.00	30.072 
19:45	37.5	37.5	37.5	49	20.1	2	7	292	0.00	30.075 
19:50	37.3	37.3	37.3	50	20.4	3	6	270	0.00	30.075 
19:55	37.3	37.3	37.3	50	20.4	2	6	315	0.00	30.075 
20:00	37.3	37.3	37.3	50	20.4	2	6	248	0.00	30.080 
20:05	37.3	37.3	37.3	50	20.4	1	5	338	0.00	30.080 
20:10	37.2	37.2	37.2	51	20.8	1	4	315	0.00	30.080 
20:15	37.2	37.2	37.2	51	20.8	2	5	292	0.00	30.076 
20:20	37.2	37.2	37.2	52	21.2	1	4	270	0.00	30.076 
20:25	37.0	37.0	37.0	52	21.0	1	4	270	0.00	30.076 
20:30	37.0	37.0	37.0	53	21.5	1	4	270	0.00	30.075 
20:35	36.9	36.9	36.9	53	21.4	1	5	315	0.00	30.075 
20:40	36.8	36.8	36.8	54	21.7	1	4	315	0.00	30.075 
20:45	36.6	36.6	36.6	54	21.5	2	3	292	0.00	30.076 
20:50	36.6	36.6	36.6	53	21.1	2	5	270	0.00	30.076 
20:55	36.6	36.6	36.6	54	21.5	1	4	270	0.00	30.076 
21:00	36.6	36.6	36.6	54	21.5	1	4	315	0.00	30.082 
21:05	36.6	36.6	36.6	54	21.5	2	5	270	0.00	30.082 
21:10	36.5	36.5	36.5	54	21.5	1	4	248	0.00	30.082 
21:15	36.5	36.5	36.5	54	21.5	1	5	248	0.00	30.082 
21:20	36.3	36.3	36.3	54	21.3	1	4	270	0.00	30.082 
21:25	36.2	36.2	36.2	54	21.2	1	4	270	0.00	30.082 
21:30	36.2	36.2	36.2	54	21.2	1	4	292	0.00	30.087 
21:35	36.0	36.0	36.0	54	21.0	1	4	248	0.00	30.087 
21:40	36.0	36.0	36.0	55	21.4	1	4	248	0.00	30.087 
21:45	36.0	36.0	36.0	55	21.4	1	3	315	0.00	30.091 
21:50	36.0	36.0	36.0	55	21.4	1	4	315	0.00	30.091 
21:55	36.0	36.0	36.0	55	21.4	1	4	315	0.00	30.091 
22:00	35.9	35.9	35.9	55	21.3	1	6	292	0.00	30.090 
22:05	35.9	35.9	35.9	55	21.3	1	4	270	0.00	30.090 
22:10	35.8	35.8	35.8	56	21.7	1	3	270	0.00	30.090 
22:15	35.5	35.5	35.5	56	21.4	1	4	270	0.00	30.092 
22:20	35.3	35.3	35.3	57	21.6	0	4	22	0.00	30.092 
22:25	35.2	35.2	35.2	57	21.5	0	3	0	0.00	30.092 
22:30	34.9	34.9	34.9	58	21.6	0	2	0	0.00	30.092 
22:35	34.7	34.7	34.7	58	21.5	1	3	0	0.00	30.092 
22:40	34.6	34.6	34.6	59	21.8	1	3	315	0.00	30.092 
22:45	34.4	34.4	34.4	60	22.0	0	2	270	0.00	30.093 
22:50	34.3	34.3	34.3	60	21.9	0	2	270	0.00	30.093 
22:55	34.1	34.1	34.1	60	21.7	0	2	270	0.00	30.093 
23:00	34.1	34.1	34.1	60	21.7	0	3	270	0.00	30.094 
23:05	34.1	34.1	34.1	61	22.1	0	1	292	0.00	30.094 
23:10	34.3	34.3	34.3	60	21.9	0	2	292	0.00	30.094 
23:15	34.3	34.3	34.3	60	21.9	0	2	292	0.00	30.093 
23:20	34.1	34.1	34.1	61	22.1	0	2	292	0.00	30.093 
23:25	33.8	33.8	33.8	61	21.8	0	1	292	0.00	30.093 
23:30	33.7	33.7	33.7	61	21.7	0	2	292	0.00	30.091 
23:35	33.5	33.5	33.5	61	21.5	1	2	292	0.00	30.091 
23:40	33.5	33.5	33.5	62	21.9	0	2	292	0.00	30.091 
23:45	33.4	33.4	33.4	62	21.8	0	2	292	0.00	30.093 
23:50	33.4	33.4	33.4	62	21.8	0	2	292	0.00	30.093 
23:55	33.4	33.4	33.4	63	22.2	0	1	292	0.00	30.093 

CoCoRaHS
IN-AL-39
A2 Web Hosting
Creative Commons License
GoDaddy
search engine by freefind advanced

loaded 2018-11-17 19:00:43 • last modified 2010-11-18 10:43:29
Privacy PolicyDisclaimer
• wx.awcolley.com is powered by PmWiki v.2002016 •
• all content (unless otherwise noted) © 2018 A W Colley